createdAt,value
2022-12-18T00:01:18.990Z,129.68
2022-12-18T00:04:25.554Z,114.10
2022-12-18T00:07:27.098Z,125.90
2022-12-18T00:10:28.931Z,140.32
2022-12-18T00:13:30.437Z,133.65
2022-12-18T00:16:32.290Z,147.48
2022-12-18T00:19:33.803Z,130.27
2022-12-18T00:22:35.306Z,120.97
2022-12-18T00:25:37.619Z,122.45
2022-12-18T00:28:39.954Z,157.97
2022-12-18T00:31:42.960Z,124.50
2022-12-18T00:34:44.484Z,122.60
2022-12-18T00:37:46.000Z,136.65
2022-12-18T00:41:07.366Z,114.15
2022-12-18T00:44:13.574Z,103.55
2022-12-18T00:47:14.997Z,101.22
2022-12-18T00:50:16.612Z,115.28
2022-12-18T00:53:18.795Z,117.07
2022-12-18T00:56:20.244Z,117.78
2022-12-18T01:02:27.931Z,95.78
2022-12-18T01:05:29.589Z,129.80
2022-12-18T01:08:31.049Z,114.68
2022-12-18T01:11:32.615Z,120.75
2022-12-18T01:14:34.141Z,115.68
2022-12-18T01:17:35.707Z,117.18
2022-12-18T01:20:38.854Z,117.93
2022-12-18T01:23:41.766Z,117.55
2022-12-18T01:26:46.531Z,122.13
2022-12-18T01:29:50.328Z,104.63
2022-12-18T01:32:54.610Z,108.72
2022-12-18T01:35:56.024Z,100.97
2022-12-18T01:38:59.675Z,113.10
2022-12-18T01:42:09.803Z,122.00
2022-12-18T01:45:17.413Z,103.90
2022-12-18T01:48:19.057Z,131.82
2022-12-18T01:51:20.764Z,111.68
2022-12-18T01:54:22.328Z,82.80
2022-12-18T01:57:25.824Z,97.65
2022-12-18T02:00:28.486Z,97.32
2022-12-18T02:03:29.979Z,81.15
2022-12-18T02:06:40.709Z,98.45
2022-12-18T02:10:03.213Z,81.95
2022-12-18T02:13:15.674Z,96.32
2022-12-18T02:16:44.773Z,75.57
2022-12-18T02:20:03.651Z,87.75
2022-12-18T02:23:23.950Z,75.97
2022-12-18T02:26:36.210Z,91.47
2022-12-18T02:29:43.283Z,122.50
2022-12-18T02:32:50.398Z,82.45
2022-12-18T02:35:54.316Z,84.72
2022-12-18T02:38:59.130Z,84.22
2022-12-18T02:42:01.958Z,89.40
2022-12-18T02:45:04.310Z,105.43
2022-12-18T02:48:08.847Z,85.43
2022-12-18T02:51:30.708Z,68.13
2022-12-18T02:54:47.344Z,56.08
2022-12-18T02:57:59.146Z,64.60
2022-12-18T03:01:20.470Z,68.32
2022-12-18T03:04:31.535Z,63.92
2022-12-18T03:07:43.042Z,68.63
2022-12-18T03:11:00.407Z,79.63
2022-12-18T03:14:06.299Z,62.08
2022-12-18T03:17:16.526Z,85.68
2022-12-18T03:20:22.657Z,62.42
2022-12-18T03:23:28.995Z,67.40
2022-12-18T03:26:31.117Z,71.50
2022-12-18T03:29:50.887Z,87.55
2022-12-18T03:33:08.253Z,70.72
2022-12-18T03:36:10.870Z,60.25
2022-12-18T03:39:13.648Z,79.50
2022-12-18T03:42:52.372Z,99.47
2022-12-18T03:46:07.096Z,78.75
2022-12-18T03:49:34.061Z,99.63
2022-12-18T03:52:53.148Z,84.13
2022-12-18T03:55:56.717Z,95.05
2022-12-18T03:59:05.189Z,74.65
2022-12-18T04:02:09.276Z,77.80
2022-12-18T04:05:12.993Z,91.72
2022-12-18T04:08:17.158Z,90.43
2022-12-18T04:11:26.596Z,89.43
2022-12-18T04:14:28.934Z,83.90
2022-12-18T04:17:31.925Z,62.05
2022-12-18T04:20:33.597Z,79.13
2022-12-18T04:23:35.143Z,72.18
2022-12-18T04:26:37.378Z,88.80
2022-12-18T04:29:47.306Z,90.32
2022-12-18T04:32:52.334Z,99.70
2022-12-18T04:35:55.061Z,104.57
2022-12-18T04:38:56.679Z,80.57
2022-12-18T04:41:58.627Z,92.63
2022-12-18T04:45:03.630Z,89.50
2022-12-18T04:48:05.303Z,73.38
2022-12-18T04:51:07.128Z,88.10
2022-12-18T04:54:08.642Z,80.47
2022-12-18T04:57:10.171Z,94.00
2022-12-18T05:00:12.546Z,104.63
2022-12-18T05:03:32.708Z,75.55
2022-12-18T05:06:34.204Z,74.28
2022-12-18T05:09:35.729Z,70.95
2022-12-18T05:12:37.202Z,69.53
2022-12-18T05:15:38.696Z,73.80
2022-12-18T05:18:40.331Z,82.15
2022-12-18T05:21:41.756Z,83.70
2022-12-18T05:24:43.262Z,61.08
2022-12-18T05:27:45.214Z,69.32
2022-12-18T05:30:51.793Z,69.63
2022-12-18T05:33:53.309Z,74.85
2022-12-18T05:36:54.871Z,61.38
2022-12-18T05:39:56.369Z,71.32
2022-12-18T05:42:57.819Z,79.05
2022-12-18T05:46:04.567Z,72.25
2022-12-18T05:49:05.992Z,67.93
2022-12-18T05:52:07.543Z,62.95
2022-12-18T05:55:09.174Z,64.45
2022-12-18T05:58:12.736Z,64.95
2022-12-18T06:01:18.131Z,62.55
2022-12-18T06:04:19.673Z,61.60
2022-12-18T06:07:21.123Z,60.10
2022-12-18T06:10:22.562Z,60.05
2022-12-18T06:13:24.094Z,62.65
2022-12-18T06:16:26.069Z,68.47
2022-12-18T06:19:27.558Z,55.67
2022-12-18T06:22:29.014Z,51.65
2022-12-18T06:25:30.489Z,47.47
2022-12-18T06:28:32.130Z,60.30
2022-12-18T06:31:33.723Z,64.55
2022-12-18T06:34:37.623Z,71.53
2022-12-18T06:37:39.061Z,62.30
2022-12-18T06:40:40.551Z,52.50
2022-12-18T06:43:42.957Z,54.75
2022-12-18T06:46:44.607Z,52.20
2022-12-18T06:49:46.202Z,80.85
2022-12-18T06:52:47.679Z,64.40
2022-12-18T06:55:49.532Z,58.05
2022-12-18T06:58:51.052Z,53.15
2022-12-18T07:01:52.664Z,55.65
2022-12-18T07:04:54.226Z,74.93
2022-12-18T07:07:55.838Z,60.67
2022-12-18T07:10:57.752Z,61.25
2022-12-18T07:13:59.194Z,69.35
2022-12-18T07:17:00.775Z,56.15
2022-12-18T07:20:02.374Z,56.67
2022-12-18T07:23:05.264Z,49.50
2022-12-18T07:26:10.082Z,56.87
2022-12-18T07:29:11.587Z,56.75
2022-12-18T07:32:13.093Z,69.57
2022-12-18T07:35:17.494Z,58.83
2022-12-18T07:38:22.583Z,75.10
2022-12-18T07:41:24.079Z,45.78
2022-12-18T07:44:25.599Z,55.47
2022-12-18T07:47:27.194Z,51.28
2022-12-18T07:50:29.566Z,57.90
2022-12-18T07:53:31.453Z,40.15
2022-12-18T07:56:34.103Z,47.57
2022-12-18T07:59:36.006Z,52.13
2022-12-18T08:02:37.605Z,47.53
2022-12-18T08:05:39.102Z,55.22
2022-12-18T08:08:40.542Z,49.58
2022-12-18T08:11:42.012Z,42.47
2022-12-18T08:14:43.602Z,43.90
2022-12-18T08:17:45.166Z,45.47
2022-12-18T08:20:46.624Z,58.60
2022-12-18T08:23:48.731Z,46.90
2022-12-18T08:27:00.998Z,47.15
2022-12-18T08:30:12.641Z,44.50
2022-12-18T08:33:14.114Z,39.13
2022-12-18T08:36:15.584Z,52.47
2022-12-18T08:39:17.124Z,43.85
2022-12-18T08:42:18.628Z,55.20
2022-12-18T08:45:20.132Z,48.50
2022-12-18T08:48:22.390Z,47.65
2022-12-18T08:51:24.102Z,48.90
2022-12-18T08:54:26.824Z,47.92
2022-12-18T08:57:28.249Z,53.83
2022-12-18T09:00:29.779Z,40.53
2022-12-18T09:03:34.397Z,35.30
2022-12-18T09:06:36.192Z,45.97
2022-12-18T09:09:38.651Z,39.15
2022-12-18T09:12:40.102Z,35.58
2022-12-18T09:15:51.131Z,47.58
2022-12-18T09:18:52.632Z,36.28
2022-12-18T09:21:54.064Z,39.22
2022-12-18T09:24:55.540Z,44.80
2022-12-18T09:27:57.014Z,37.03
2022-12-18T09:30:58.515Z,40.00
2022-12-18T09:34:00.087Z,38.22
2022-12-18T09:37:01.589Z,37.90
2022-12-18T09:40:03.446Z,36.83
2022-12-18T09:43:08.432Z,30.02
2022-12-18T09:46:18.700Z,35.90
2022-12-18T09:49:26.098Z,37.67
2022-12-18T09:52:42.688Z,38.25
2022-12-18T09:55:48.636Z,28.67
2022-12-18T09:59:02.993Z,33.53
2022-12-18T10:05:48.315Z,32.08
2022-12-18T10:09:08.461Z,34.15
2022-12-18T10:12:28.412Z,35.20
2022-12-18T10:15:41.747Z,35.00
2022-12-18T10:19:20.932Z,39.42
2022-12-18T10:22:27.198Z,34.70
2022-12-18T10:25:45.796Z,29.60
2022-12-18T10:28:47.677Z,36.00
2022-12-18T10:31:49.162Z,33.58
2022-12-18T10:34:59.828Z,30.52
2022-12-18T10:38:17.215Z,31.83
2022-12-18T10:41:18.616Z,31.15
2022-12-18T10:44:24.415Z,32.72
2022-12-18T10:47:29.135Z,33.47
2022-12-18T10:51:09.174Z,32.83
2022-12-18T10:54:04.259Z,24.10
2022-12-18T10:57:29.663Z,27.25
2022-12-18T11:00:31.679Z,25.58
2022-12-18T11:03:38.263Z,26.73
2022-12-18T11:06:53.703Z,30.33
2022-12-18T11:10:03.383Z,28.08
2022-12-18T11:13:17.615Z,30.98
2022-12-18T11:16:22.363Z,32.50
2022-12-18T11:19:41.735Z,29.80
2022-12-18T11:22:43.674Z,27.88
2022-12-18T11:25:56.900Z,27.73
2022-12-18T11:29:17.187Z,30.70
2022-12-18T11:32:32.373Z,32.58
2022-12-18T11:35:53.753Z,30.65
2022-12-18T11:38:58.294Z,27.65
2022-12-18T11:42:13.247Z,27.70
2022-12-18T11:45:15.466Z,35.30
2022-12-18T11:48:28.433Z,30.63
2022-12-18T11:51:39.084Z,25.95
2022-12-18T11:54:40.565Z,24.52
2022-12-18T11:57:50.376Z,27.65
2022-12-18T12:01:19.242Z,22.77
2022-12-18T12:04:44.176Z,26.55
2022-12-18T12:07:53.545Z,24.02
2022-12-18T12:11:24.009Z,27.02
2022-12-18T12:14:48.566Z,27.60
2022-12-18T12:18:23.839Z,25.08
2022-12-18T12:21:28.204Z,24.60
2022-12-18T12:25:00.651Z,24.02
2022-12-18T12:28:36.741Z,28.65
2022-12-18T12:32:19.851Z,29.25
2022-12-18T12:35:52.857Z,26.25
2022-12-18T12:39:01.997Z,26.25
2022-12-18T12:42:16.298Z,28.60
2022-12-18T12:45:25.072Z,29.73
2022-12-18T12:48:43.783Z,30.77
2022-12-18T12:51:56.714Z,30.17
2022-12-18T12:55:10.257Z,26.60
2022-12-18T12:58:24.086Z,25.47
2022-12-18T13:01:42.432Z,25.25
2022-12-18T13:04:57.243Z,28.33
2022-12-18T13:08:07.028Z,26.10
2022-12-18T13:11:45.411Z,26.85
2022-12-18T13:14:50.093Z,26.17
2022-12-18T13:18:10.620Z,30.38
2022-12-18T13:21:25.287Z,26.10
2022-12-18T13:24:31.518Z,26.42
2022-12-18T13:27:45.164Z,28.80
2022-12-18T13:30:55.067Z,29.35
2022-12-18T13:34:27.828Z,31.15
2022-12-18T13:37:33.487Z,29.55
2022-12-18T13:40:41.007Z,27.50
2022-12-18T13:43:46.009Z,31.42
2022-12-18T13:46:50.602Z,30.65
2022-12-18T13:49:53.450Z,28.55
2022-12-18T13:52:55.097Z,28.52
2022-12-18T13:55:57.110Z,27.98
2022-12-18T13:59:13.303Z,32.10
2022-12-18T14:02:21.572Z,28.67
2022-12-18T14:05:28.191Z,31.40
2022-12-18T14:08:41.967Z,32.17
2022-12-18T14:11:48.874Z,30.20
2022-12-18T14:14:53.148Z,25.88
2022-12-18T14:18:00.373Z,31.30
2022-12-18T14:21:04.019Z,29.13
2022-12-18T14:24:05.664Z,31.48
2022-12-18T14:27:25.471Z,28.00
2022-12-18T14:30:33.706Z,31.63
2022-12-18T14:33:39.333Z,29.63
2022-12-18T14:36:41.066Z,32.95
2022-12-18T14:40:02.201Z,28.48
2022-12-18T14:43:06.035Z,30.85
2022-12-18T14:46:29.969Z,30.15
2022-12-18T14:49:34.621Z,33.25
2022-12-18T14:52:36.176Z,35.47
2022-12-18T14:55:37.718Z,40.63
2022-12-18T14:58:39.205Z,29.63
2022-12-18T15:01:48.485Z,32.88
2022-12-18T15:05:17.695Z,33.63
2022-12-18T15:08:32.417Z,32.03
2022-12-18T15:11:58.774Z,29.75
2022-12-18T15:15:00.315Z,31.80
2022-12-18T15:18:11.313Z,27.98
2022-12-18T15:21:19.526Z,28.85
2022-12-18T15:24:30.551Z,29.70
2022-12-18T15:27:37.155Z,29.45
2022-12-18T15:30:38.639Z,31.40
2022-12-18T15:34:02.596Z,31.60
2022-12-18T15:37:04.071Z,50.72
2022-12-18T15:40:06.289Z,30.13
2022-12-18T15:43:10.025Z,32.53
2022-12-18T15:46:16.906Z,31.33
2022-12-18T15:49:18.420Z,29.38
2022-12-18T15:52:19.895Z,28.48
2022-12-18T15:55:23.746Z,27.45
2022-12-18T15:58:25.152Z,33.75
2022-12-18T16:01:29.291Z,31.08
2022-12-18T16:04:30.818Z,31.05
2022-12-18T16:07:32.345Z,26.38
2022-12-18T16:10:33.814Z,31.25
2022-12-18T16:13:35.417Z,32.45
2022-12-18T16:16:37.002Z,31.45
2022-12-18T16:19:38.478Z,31.73
2022-12-18T16:22:39.894Z,27.67
2022-12-18T16:25:41.823Z,29.65
2022-12-18T16:28:48.254Z,34.38
2022-12-18T16:31:50.012Z,30.77
2022-12-18T16:34:51.982Z,32.65
2022-12-18T16:37:53.533Z,33.90
2022-12-18T16:40:55.050Z,35.00
2022-12-18T16:43:56.497Z,32.47
2022-12-18T16:46:57.935Z,32.97
2022-12-18T16:49:59.546Z,29.80
2022-12-18T16:53:01.031Z,30.52
2022-12-18T16:56:02.524Z,32.60
2022-12-18T16:59:04.084Z,37.55
2022-12-18T17:02:06.653Z,31.42
2022-12-18T17:05:09.594Z,30.95
2022-12-18T17:08:13.409Z,33.55
2022-12-18T17:11:15.288Z,29.90
2022-12-18T17:14:19.780Z,31.27
2022-12-18T17:17:23.022Z,30.05
2022-12-18T17:20:24.726Z,34.53
2022-12-18T17:23:28.431Z,29.95
2022-12-18T17:26:30.463Z,28.15
2022-12-18T17:29:31.972Z,29.20
2022-12-18T17:32:33.409Z,27.65
2022-12-18T17:35:34.838Z,30.65
2022-12-18T17:38:37.034Z,27.90
2022-12-18T17:41:38.491Z,26.50
2022-12-18T17:44:39.963Z,28.45
2022-12-18T17:47:41.407Z,33.85
2022-12-18T17:50:42.849Z,30.00
2022-12-18T17:53:44.953Z,29.58
2022-12-18T17:56:46.524Z,28.38
2022-12-18T17:59:48.035Z,26.90
2022-12-18T18:02:49.654Z,24.08
2022-12-18T18:05:58.874Z,34.20
2022-12-18T18:09:00.426Z,28.15
2022-12-18T18:12:01.862Z,27.23
2022-12-18T18:15:03.709Z,29.60
2022-12-18T18:18:05.409Z,30.13
2022-12-18T18:21:08.062Z,30.90
2022-12-18T18:24:11.893Z,30.73
2022-12-18T18:27:13.364Z,30.73
2022-12-18T18:30:14.895Z,25.58
2022-12-18T18:33:16.395Z,26.92
2022-12-18T18:36:17.935Z,29.95
2022-12-18T18:39:19.983Z,29.98
2022-12-18T18:42:21.437Z,27.42
2022-12-18T18:45:22.874Z,30.20
2022-12-18T18:48:25.298Z,31.88
2022-12-18T18:51:34.878Z,29.92
2022-12-18T18:54:36.784Z,30.77
2022-12-18T18:57:38.246Z,29.75
2022-12-18T19:00:39.843Z,32.58
2022-12-18T19:03:43.011Z,32.10
2022-12-18T19:06:44.823Z,38.28
2022-12-18T19:09:47.277Z,32.55
2022-12-18T19:12:48.708Z,37.80
2022-12-18T19:15:55.846Z,34.65
2022-12-18T19:19:01.740Z,36.75
2022-12-18T19:22:04.887Z,34.15
2022-12-18T19:25:07.359Z,36.75
2022-12-18T19:28:21.262Z,32.83
2022-12-18T19:31:26.322Z,34.35
2022-12-18T19:34:31.994Z,37.47
2022-12-18T19:37:35.287Z,33.03
2022-12-18T19:40:40.841Z,36.35
2022-12-18T19:43:42.641Z,39.65
2022-12-18T19:46:45.011Z,39.75
2022-12-18T19:49:46.857Z,42.28
2022-12-18T19:52:48.329Z,39.38
2022-12-18T19:55:49.866Z,42.78
2022-12-18T19:58:52.444Z,39.97
2022-12-18T20:01:54.452Z,44.40
2022-12-18T20:04:56.387Z,42.88
2022-12-18T20:07:57.945Z,44.15
2022-12-18T20:10:59.435Z,42.13
2022-12-18T20:14:01.080Z,46.63
2022-12-18T20:17:02.563Z,48.40
2022-12-18T20:20:04.880Z,45.90
2022-12-18T20:23:06.304Z,43.00
2022-12-18T20:26:07.806Z,46.75
2022-12-18T20:29:10.233Z,48.17
2022-12-18T20:32:11.787Z,47.15
2022-12-18T20:35:13.358Z,48.53
2022-12-18T20:38:15.770Z,46.60
2022-12-18T20:41:20.546Z,48.95
2022-12-18T20:44:24.041Z,47.83
2022-12-18T20:47:26.392Z,48.40
2022-12-18T20:50:28.255Z,53.17
2022-12-18T20:53:29.981Z,52.10
2022-12-18T20:56:31.549Z,52.38
2022-12-18T20:59:33.064Z,53.10
2022-12-18T21:02:34.764Z,55.75
2022-12-18T21:05:36.361Z,57.40
2022-12-18T21:08:39.263Z,53.90
2022-12-18T21:11:59.325Z,62.65
2022-12-18T21:15:01.586Z,60.40
2022-12-18T21:18:03.125Z,63.58
2022-12-18T21:21:04.729Z,66.15
2022-12-18T21:24:18.138Z,57.78
2022-12-18T21:27:23.287Z,60.67
2022-12-18T21:30:24.750Z,63.03
2022-12-18T21:33:26.183Z,68.72
2022-12-18T21:36:27.799Z,68.13
2022-12-18T21:39:30.271Z,60.00
2022-12-18T21:42:31.824Z,67.35
2022-12-18T21:45:33.539Z,66.28
2022-12-18T21:48:34.967Z,77.90
2022-12-18T21:51:41.330Z,69.10
2022-12-18T21:54:42.804Z,68.30
2022-12-18T21:57:44.259Z,71.90
2022-12-18T22:00:48.665Z,63.25
2022-12-18T22:03:50.366Z,74.35
2022-12-18T22:06:51.895Z,70.05
2022-12-18T22:09:53.338Z,76.55
2022-12-18T22:12:55.064Z,89.68
2022-12-18T22:15:56.670Z,65.68
2022-12-18T22:18:58.186Z,76.13
2022-12-18T22:21:59.771Z,69.32
2022-12-18T22:25:01.202Z,69.13
2022-12-18T22:28:02.707Z,76.32
2022-12-18T22:31:04.273Z,78.90
2022-12-18T22:34:07.018Z,70.72
2022-12-18T22:37:11.294Z,79.60
2022-12-18T22:43:26.114Z,86.13
2022-12-18T22:46:30.956Z,77.70
2022-12-18T22:49:36.122Z,94.15
2022-12-18T22:52:37.642Z,84.75
2022-12-18T22:55:39.109Z,65.68
2022-12-18T22:58:40.584Z,80.60
2022-12-18T23:01:42.266Z,79.72
2022-12-18T23:04:45.167Z,81.65
2022-12-18T23:07:46.692Z,85.13
2022-12-18T23:10:52.633Z,93.78
2022-12-18T23:13:54.192Z,84.60
2022-12-18T23:16:59.023Z,87.40
2022-12-18T23:20:00.439Z,91.57
2022-12-18T23:23:01.869Z,93.38
2022-12-18T23:26:08.756Z,98.57
2022-12-18T23:29:10.207Z,77.70
2022-12-18T23:32:11.661Z,94.93
2022-12-18T23:35:15.899Z,96.22
2022-12-18T23:38:17.552Z,105.22
2022-12-18T23:41:20.829Z,95.47
2022-12-18T23:44:22.276Z,105.53
2022-12-18T23:47:23.871Z,94.18
2022-12-18T23:50:28.760Z,107.15
2022-12-18T23:53:31.558Z,94.35
2022-12-18T23:56:33.027Z,122.20
2022-12-18T23:59:34.459Z,119.18
